createdAt,value
2022-10-09T00:00:11.447Z,1016.4
2022-10-09T00:01:14.793Z,1016.4
2022-10-09T00:02:18.248Z,1016.4
2022-10-09T00:03:21.512Z,1016.5
2022-10-09T00:04:24.774Z,1016.5
2022-10-09T00:05:27.609Z,1016.5
2022-10-09T00:06:31.114Z,1016.5
2022-10-09T00:07:34.638Z,1016.5
2022-10-09T00:08:37.434Z,1016.5
2022-10-09T00:09:40.950Z,1016.6
2022-10-09T00:10:44.107Z,1016.6
2022-10-09T00:11:47.255Z,1016.6
2022-10-09T00:12:50.901Z,1016.6
2022-10-09T00:13:54.383Z,1016.6
2022-10-09T00:14:57.890Z,1016.7
2022-10-09T00:16:01.711Z,1016.7
2022-10-09T00:17:04.838Z,1016.7
2022-10-09T00:18:08.513Z,1016.7
2022-10-09T00:19:11.593Z,1016.6
2022-10-09T00:20:14.120Z,1016.6
2022-10-09T00:21:17.217Z,1016.6
2022-10-09T00:22:19.933Z,1016.7
2022-10-09T00:23:23.101Z,1016.7
2022-10-09T00:24:25.886Z,1016.7
2022-10-09T00:25:28.471Z,1016.7
2022-10-09T00:26:30.984Z,1016.8
2022-10-09T00:27:33.717Z,1016.7
2022-10-09T00:28:39.346Z,1016.8
2022-10-09T00:29:42.776Z,1016.7
2022-10-09T00:30:45.956Z,1016.8
2022-10-09T00:31:50.144Z,1016.8
2022-10-09T00:32:53.593Z,1016.8
2022-10-09T00:33:56.387Z,1016.8
2022-10-09T00:34:59.376Z,1016.7
2022-10-09T00:36:02.807Z,1016.7
2022-10-09T00:37:05.893Z,1016.7
2022-10-09T00:38:08.507Z,1016.8
2022-10-09T00:39:11.293Z,1016.8
2022-10-09T00:40:14.166Z,1016.8
2022-10-09T00:41:16.966Z,1016.8
2022-10-09T00:42:19.754Z,1016.8
2022-10-09T00:43:23.461Z,1016.8
2022-10-09T00:44:26.332Z,1016.8
2022-10-09T00:45:29.244Z,1016.8
2022-10-09T00:46:32.810Z,1016.8
2022-10-09T00:47:37.673Z,1016.8
2022-10-09T00:48:40.557Z,1016.9
2022-10-09T00:49:43.627Z,1016.9
2022-10-09T00:50:46.216Z,1016.9
2022-10-09T00:51:49.208Z,1016.9
2022-10-09T00:52:52.650Z,1016.9
2022-10-09T00:53:55.734Z,1016.9
2022-10-09T00:54:58.236Z,1016.9
2022-10-09T00:56:01.116Z,1016.9
2022-10-09T00:57:04.092Z,1017
2022-10-09T00:58:07.259Z,1017
2022-10-09T00:59:09.976Z,1016.9
2022-10-09T01:00:12.964Z,1017
2022-10-09T01:01:15.588Z,1017
2022-10-09T01:02:19.365Z,1017
2022-10-09T01:03:23.739Z,1017
2022-10-09T01:04:26.456Z,1017
2022-10-09T01:05:29.253Z,1017
2022-10-09T01:06:32.762Z,1017
2022-10-09T01:07:35.894Z,1016.9
2022-10-09T01:08:39.230Z,1016.9
2022-10-09T01:09:41.847Z,1017
2022-10-09T01:10:45.491Z,1016.9
2022-10-09T01:11:48.658Z,1016.9
2022-10-09T01:12:52.283Z,1016.9
2022-10-09T01:13:55.287Z,1016.9
2022-10-09T01:14:57.836Z,1016.9
2022-10-09T01:16:01.197Z,1016.9
2022-10-09T01:17:04.965Z,1016.9
2022-10-09T01:18:07.824Z,1016.9
2022-10-09T01:19:11.598Z,1016.9
2022-10-09T01:20:15.039Z,1017
2022-10-09T01:21:18.291Z,1017
2022-10-09T01:22:21.449Z,1017
2022-10-09T01:23:24.037Z,1017
2022-10-09T01:24:27.114Z,1017
2022-10-09T01:25:30.456Z,1017
2022-10-09T01:26:32.897Z,1017
2022-10-09T01:27:36.064Z,1017
2022-10-09T01:28:39.381Z,1017
2022-10-09T01:29:42.682Z,1017
2022-10-09T01:30:46.032Z,1017
2022-10-09T01:31:49.098Z,1017
2022-10-09T01:32:52.545Z,1017
2022-10-09T01:33:55.110Z,1017
2022-10-09T01:34:58.872Z,1017
2022-10-09T01:36:01.935Z,1017
2022-10-09T01:37:04.808Z,1017
2022-10-09T01:38:08.171Z,1017
2022-10-09T01:39:11.615Z,1017
2022-10-09T01:40:14.325Z,1017
2022-10-09T01:41:17.572Z,1017
2022-10-09T01:42:20.555Z,1017
2022-10-09T01:43:23.233Z,1017
2022-10-09T01:44:26.327Z,1017
2022-10-09T01:45:29.682Z,1017
2022-10-09T01:46:33.058Z,1017
2022-10-09T01:47:36.370Z,1017
2022-10-09T01:48:39.112Z,1017
2022-10-09T01:49:42.917Z,1017.1
2022-10-09T01:50:47.322Z,1017
2022-10-09T01:51:50.034Z,1017.1
2022-10-09T01:52:54.073Z,1017
2022-10-09T01:53:57.572Z,1017
2022-10-09T01:55:00.740Z,1017
2022-10-09T01:56:03.334Z,1017
2022-10-09T01:57:06.567Z,1017
2022-10-09T01:58:09.824Z,1017
2022-10-09T01:59:16.364Z,1017.1
2022-10-09T02:00:19.156Z,1017
2022-10-09T02:01:22.081Z,1017.1
2022-10-09T02:02:25.308Z,1017.1
2022-10-09T02:03:28.790Z,1017.1
2022-10-09T02:04:32.510Z,1017.1
2022-10-09T02:05:35.798Z,1017.1
2022-10-09T02:06:39.576Z,1017.1
2022-10-09T02:07:42.637Z,1017.1
2022-10-09T02:08:45.909Z,1017.1
2022-10-09T02:09:49.009Z,1017.1
2022-10-09T02:10:52.239Z,1017.1
2022-10-09T02:11:54.788Z,1017.2
2022-10-09T02:12:57.574Z,1017.1
2022-10-09T02:14:01.089Z,1017.1
2022-10-09T02:15:03.805Z,1017.1
2022-10-09T02:16:06.270Z,1017.1
2022-10-09T02:17:08.953Z,1017.1
2022-10-09T02:18:12.363Z,1017.1
2022-10-09T02:19:15.178Z,1017.1
2022-10-09T02:20:17.923Z,1017.1
2022-10-09T02:21:21.361Z,1017.1
2022-10-09T02:22:25.409Z,1017.2
2022-10-09T02:23:28.399Z,1017.2
2022-10-09T02:24:30.647Z,1017.2
2022-10-09T02:25:33.108Z,1017.2
2022-10-09T02:26:36.027Z,1017.2
2022-10-09T02:27:39.456Z,1017.2
2022-10-09T02:28:46.477Z,1017.3
2022-10-09T02:29:50.546Z,1017.2
2022-10-09T02:30:52.941Z,1017.3
2022-10-09T02:31:56.458Z,1017.3
2022-10-09T02:32:59.873Z,1017.3
2022-10-09T02:34:02.866Z,1017.3
2022-10-09T02:35:05.379Z,1017.3
2022-10-09T02:36:08.853Z,1017.3
2022-10-09T02:37:12.184Z,1017.3
2022-10-09T02:38:15.950Z,1017.3
2022-10-09T02:39:19.447Z,1017.3
2022-10-09T02:40:21.959Z,1017.3
2022-10-09T02:41:24.288Z,1017.3
2022-10-09T02:42:27.656Z,1017.3
2022-10-09T02:43:30.535Z,1017.4
2022-10-09T02:44:33.253Z,1017.3
2022-10-09T02:45:36.118Z,1017.4
2022-10-09T02:46:40.098Z,1017.4
2022-10-09T02:47:43.458Z,1017.4
2022-10-09T02:48:46.879Z,1017.4
2022-10-09T02:49:49.968Z,1017.4
2022-10-09T02:50:53.390Z,1017.4
2022-10-09T02:51:56.497Z,1017.4
2022-10-09T02:52:59.341Z,1017.4
2022-10-09T02:54:03.471Z,1017.4
2022-10-09T02:55:06.337Z,1017.4
2022-10-09T02:56:09.789Z,1017.4
2022-10-09T02:57:13.259Z,1017.4
2022-10-09T02:58:16.046Z,1017.5
2022-10-09T02:59:19.382Z,1017.5
2022-10-09T03:00:22.630Z,1017.5
2022-10-09T03:01:26.514Z,1017.5
2022-10-09T03:02:29.821Z,1017.5
2022-10-09T03:03:33.301Z,1017.5
2022-10-09T03:04:36.664Z,1017.5
2022-10-09T03:05:39.179Z,1017.5
2022-10-09T03:06:42.309Z,1017.5
2022-10-09T03:07:45.402Z,1017.5
2022-10-09T03:08:48.518Z,1017.6
2022-10-09T03:09:52.577Z,1017.5
2022-10-09T03:10:56.033Z,1017.5
2022-10-09T03:11:58.553Z,1017.5
2022-10-09T03:13:01.715Z,1017.6
2022-10-09T03:14:03.941Z,1017.6
2022-10-09T03:15:06.424Z,1017.6
2022-10-09T03:16:09.953Z,1017.6
2022-10-09T03:17:12.927Z,1017.6
2022-10-09T03:18:15.542Z,1017.6
2022-10-09T03:19:18.396Z,1017.6
2022-10-09T03:20:21.949Z,1017.6
2022-10-09T03:21:25.175Z,1017.6
2022-10-09T03:22:29.172Z,1017.6
2022-10-09T03:23:31.999Z,1017.6
2022-10-09T03:24:34.492Z,1017.6
2022-10-09T03:25:38.325Z,1017.6
2022-10-09T03:26:41.186Z,1017.6
2022-10-09T03:27:44.822Z,1017.6
2022-10-09T03:28:48.183Z,1017.6
2022-10-09T03:29:51.133Z,1017.6
2022-10-09T03:30:54.403Z,1017.6
2022-10-09T03:31:58.070Z,1017.6
2022-10-09T03:33:01.432Z,1017.6
2022-10-09T03:34:04.953Z,1017.7
2022-10-09T03:35:08.223Z,1017.6
2022-10-09T03:36:10.944Z,1017.7
2022-10-09T03:37:14.402Z,1017.6
2022-10-09T03:38:18.140Z,1017.7
2022-10-09T03:39:21.562Z,1017.7
2022-10-09T03:40:24.462Z,1017.7
2022-10-09T03:41:28.633Z,1017.8
2022-10-09T03:42:31.346Z,1017.7
2022-10-09T03:43:33.779Z,1017.8
2022-10-09T03:44:37.039Z,1017.8
2022-10-09T03:45:39.933Z,1017.8
2022-10-09T03:46:42.743Z,1017.8
2022-10-09T03:47:45.749Z,1017.8
2022-10-09T03:48:48.549Z,1017.8
2022-10-09T03:49:51.135Z,1017.8
2022-10-09T03:50:53.196Z,1017.8
2022-10-09T03:51:56.888Z,1017.8
2022-10-09T03:52:59.947Z,1017.8
2022-10-09T03:54:03.187Z,1017.8
2022-10-09T03:55:05.926Z,1017.8
2022-10-09T03:56:09.415Z,1017.8
2022-10-09T03:57:12.664Z,1017.8
2022-10-09T03:58:14.921Z,1017.8
2022-10-09T03:59:17.834Z,1017.8
2022-10-09T04:00:21.450Z,1017.9
2022-10-09T04:01:25.117Z,1017.9
2022-10-09T04:02:27.814Z,1017.8
2022-10-09T04:03:30.714Z,1017.9
2022-10-09T04:04:33.811Z,1017.9
2022-10-09T04:05:36.330Z,1017.9
2022-10-09T04:06:39.777Z,1017.9
2022-10-09T04:07:42.667Z,1017.9
2022-10-09T04:08:45.723Z,1017.8
2022-10-09T04:09:48.880Z,1017.9
2022-10-09T04:10:51.915Z,1017.9
2022-10-09T04:11:55.347Z,1017.9
2022-10-09T04:12:58.909Z,1017.9
2022-10-09T04:14:01.718Z,1017.9
2022-10-09T04:15:04.874Z,1017.9
2022-10-09T04:16:07.991Z,1017.9
2022-10-09T04:17:11.077Z,1017.9
2022-10-09T04:18:14.021Z,1017.9
2022-10-09T04:19:17.366Z,1017.9
2022-10-09T04:20:20.829Z,1017.8
2022-10-09T04:21:24.245Z,1017.9
2022-10-09T04:22:26.976Z,1017.9
2022-10-09T04:23:30.200Z,1018
2022-10-09T04:24:32.916Z,1018
2022-10-09T04:25:35.251Z,1018
2022-10-09T04:26:38.614Z,1017.9
2022-10-09T04:27:41.783Z,1017.9
2022-10-09T04:28:45.729Z,1017.9
2022-10-09T04:29:48.933Z,1018
2022-10-09T04:30:52.443Z,1017.9
2022-10-09T04:31:55.710Z,1017.9
2022-10-09T04:32:59.099Z,1017.9
2022-10-09T04:34:02.155Z,1017.9
2022-10-09T04:35:04.051Z,1017.9
2022-10-09T04:36:07.509Z,1017.9
2022-10-09T04:37:10.949Z,1017.9
2022-10-09T04:38:14.475Z,1017.9
2022-10-09T04:39:16.894Z,1017.8
2022-10-09T04:40:19.988Z,1017.9
2022-10-09T04:41:22.584Z,1017.9
2022-10-09T04:42:25.550Z,1017.9
2022-10-09T04:43:28.655Z,1017.9
2022-10-09T04:44:32.450Z,1017.9
2022-10-09T04:45:35.883Z,1017.9
2022-10-09T04:46:39.354Z,1017.9
2022-10-09T04:47:42.491Z,1017.9
2022-10-09T04:48:45.652Z,1017.9
2022-10-09T04:49:48.724Z,1017.9
2022-10-09T04:50:52.382Z,1017.9
2022-10-09T04:51:55.821Z,1017.9
2022-10-09T04:52:58.541Z,1017.9
2022-10-09T04:54:01.186Z,1017.9
2022-10-09T04:55:04.905Z,1017.9
2022-10-09T04:56:07.424Z,1018
2022-10-09T04:57:10.206Z,1018
2022-10-09T04:58:12.457Z,1018
2022-10-09T04:59:15.565Z,1017.9
2022-10-09T05:00:19.044Z,1018
2022-10-09T05:01:22.622Z,1018
2022-10-09T05:02:26.691Z,1018
2022-10-09T05:03:29.869Z,1017.9
2022-10-09T05:04:33.317Z,1018
2022-10-09T05:05:36.833Z,1017.9
2022-10-09T05:06:40.459Z,1018
2022-10-09T05:07:43.335Z,1018
2022-10-09T05:08:45.855Z,1017.9
2022-10-09T05:09:48.644Z,1018
2022-10-09T05:10:51.597Z,1017.9
2022-10-09T05:11:54.677Z,1018
2022-10-09T05:12:57.100Z,1018
2022-10-09T05:14:00.308Z,1018
2022-10-09T05:15:04.017Z,1018
2022-10-09T05:16:08.242Z,1018
2022-10-09T05:17:16.528Z,1018.1
2022-10-09T05:18:25.515Z,1018.1
2022-10-09T05:19:28.400Z,1018
2022-10-09T05:20:31.216Z,1018
2022-10-09T05:21:34.665Z,1018
2022-10-09T05:22:38.083Z,1018.1
2022-10-09T05:23:40.950Z,1018.1
2022-10-09T05:24:44.113Z,1018.1
2022-10-09T05:25:47.812Z,1018
2022-10-09T05:26:50.900Z,1018.1
2022-10-09T05:27:53.613Z,1018.1
2022-10-09T05:28:56.479Z,1018.1
2022-10-09T05:29:59.307Z,1018.1
2022-10-09T05:31:03.179Z,1018.1
2022-10-09T05:32:07.033Z,1018.1
2022-10-09T05:33:10.799Z,1018.1
2022-10-09T05:34:14.017Z,1018.2
2022-10-09T05:35:17.472Z,1018.2
2022-10-09T05:36:19.786Z,1018.2
2022-10-09T05:37:22.157Z,1018.2
2022-10-09T05:38:25.386Z,1018.2
2022-10-09T05:39:28.096Z,1018.2
2022-10-09T05:40:30.356Z,1018.2
2022-10-09T05:41:32.065Z,1018.2
2022-10-09T05:42:35.500Z,1018.2
2022-10-09T05:43:39.030Z,1018.2
2022-10-09T05:44:41.885Z,1018.2
2022-10-09T05:45:44.251Z,1018.2
2022-10-09T05:46:47.762Z,1018.2
2022-10-09T05:47:51.943Z,1018.2
2022-10-09T05:48:54.769Z,1018.2
2022-10-09T05:49:58.383Z,1018.2
2022-10-09T05:51:01.365Z,1018.2
2022-10-09T05:52:04.509Z,1018.1
2022-10-09T05:53:07.230Z,1018.2
2022-10-09T05:54:10.037Z,1018.2
2022-10-09T05:55:12.897Z,1018.2
2022-10-09T05:56:15.793Z,1018.2
2022-10-09T05:57:18.318Z,1018.2
2022-10-09T05:58:21.199Z,1018.2
2022-10-09T05:59:23.635Z,1018.2
2022-10-09T06:00:26.620Z,1018.2
2022-10-09T06:01:30.548Z,1018.3
2022-10-09T06:02:33.639Z,1018.3
2022-10-09T06:03:38.081Z,1018.3
2022-10-09T06:04:41.151Z,1018.2
2022-10-09T06:05:44.301Z,1018.2
2022-10-09T06:06:47.153Z,1018.3
2022-10-09T06:07:49.016Z,1018.3
2022-10-09T06:08:52.264Z,1018.3
2022-10-09T06:09:54.968Z,1018.3
2022-10-09T06:10:57.554Z,1018.3
2022-10-09T06:12:00.082Z,1018.3
2022-10-09T06:13:02.781Z,1018.3
2022-10-09T06:14:05.490Z,1018.3
2022-10-09T06:15:08.929Z,1018.3
2022-10-09T06:16:11.839Z,1018.3
2022-10-09T06:17:15.415Z,1018.3
2022-10-09T06:18:18.628Z,1018.3
2022-10-09T06:19:22.775Z,1018.3
2022-10-09T06:20:25.829Z,1018.3
2022-10-09T06:21:28.351Z,1018.3
2022-10-09T06:22:31.438Z,1018.3
2022-10-09T06:23:34.313Z,1018.3
2022-10-09T06:24:38.114Z,1018.3
2022-10-09T06:25:41.052Z,1018.3
2022-10-09T06:26:43.947Z,1018.3
2022-10-09T06:27:47.347Z,1018.4
2022-10-09T06:28:50.010Z,1018.4
2022-10-09T06:29:52.979Z,1018.4
2022-10-09T06:30:55.549Z,1018.4
2022-10-09T06:31:58.980Z,1018.4
2022-10-09T06:33:01.786Z,1018.4
2022-10-09T06:34:05.020Z,1018.4
2022-10-09T06:35:09.069Z,1018.4
2022-10-09T06:36:12.863Z,1018.4
2022-10-09T06:37:16.019Z,1018.4
2022-10-09T06:38:19.178Z,1018.4
2022-10-09T06:39:21.762Z,1018.4
2022-10-09T06:40:25.541Z,1018.4
2022-10-09T06:41:28.517Z,1018.4
2022-10-09T06:42:31.031Z,1018.4
2022-10-09T06:43:33.269Z,1018.4
2022-10-09T06:44:35.606Z,1018.4
2022-10-09T06:45:38.682Z,1018.4
2022-10-09T06:46:42.004Z,1018.4
2022-10-09T06:47:45.079Z,1018.4
2022-10-09T06:48:48.807Z,1018.4
2022-10-09T06:49:51.930Z,1018.4
2022-10-09T06:50:56.025Z,1018.5
2022-10-09T06:51:59.119Z,1018.5
2022-10-09T06:53:01.925Z,1018.5
2022-10-09T06:54:04.914Z,1018.4
2022-10-09T06:55:07.754Z,1018.5
2022-10-09T06:56:10.925Z,1018.5
2022-10-09T06:57:14.583Z,1018.5
2022-10-09T06:58:18.373Z,1018.5
2022-10-09T06:59:21.866Z,1018.5
2022-10-09T07:00:24.461Z,1018.5
2022-10-09T07:01:28.140Z,1018.5
2022-10-09T07:02:31.295Z,1018.5
2022-10-09T07:03:34.979Z,1018.5
2022-10-09T07:04:37.810Z,1018.5
2022-10-09T07:05:41.010Z,1018.5
2022-10-09T07:06:45.074Z,1018.5
2022-10-09T07:07:48.429Z,1018.6
2022-10-09T07:08:52.137Z,1018.6
2022-10-09T07:09:55.786Z,1018.6
2022-10-09T07:10:58.377Z,1018.6
2022-10-09T07:12:01.462Z,1018.6
2022-10-09T07:13:03.985Z,1018.6
2022-10-09T07:14:06.805Z,1018.6
2022-10-09T07:15:09.649Z,1018.6
2022-10-09T07:16:13.207Z,1018.6
2022-10-09T07:17:16.697Z,1018.6
2022-10-09T07:18:19.930Z,1018.7
2022-10-09T07:19:22.996Z,1018.7
2022-10-09T07:20:26.232Z,1018.6
2022-10-09T07:21:30.141Z,1018.6
2022-10-09T07:22:33.984Z,1018.6
2022-10-09T07:23:37.192Z,1018.6
2022-10-09T07:24:39.992Z,1018.6
2022-10-09T07:25:43.055Z,1018.6
2022-10-09T07:26:46.402Z,1018.7
2022-10-09T07:27:49.681Z,1018.6
2022-10-09T07:28:52.199Z,1018.7
2022-10-09T07:29:55.549Z,1018.7
2022-10-09T07:30:58.922Z,1018.7
2022-10-09T07:32:10.567Z,1018.7
2022-10-09T07:33:13.902Z,1018.7
2022-10-09T07:34:16.693Z,1018.7
2022-10-09T07:35:19.402Z,1018.8
2022-10-09T07:36:21.963Z,1018.8
2022-10-09T07:37:25.365Z,1018.8
2022-10-09T07:38:28.933Z,1018.8
2022-10-09T07:39:32.619Z,1018.7
2022-10-09T07:40:34.960Z,1018.8
2022-10-09T07:41:37.194Z,1018.8
2022-10-09T07:42:39.996Z,1018.8
2022-10-09T07:43:43.512Z,1018.8
2022-10-09T07:44:46.943Z,1018.7
2022-10-09T07:45:50.483Z,1018.8
2022-10-09T07:46:54.201Z,1018.8
2022-10-09T07:47:57.712Z,1018.8
2022-10-09T07:49:00.705Z,1018.9
2022-10-09T07:50:03.214Z,1018.9
2022-10-09T07:51:06.186Z,1018.9
2022-10-09T07:52:09.480Z,1018.9
2022-10-09T07:53:12.987Z,1018.9
2022-10-09T07:54:16.790Z,1018.9
2022-10-09T07:55:19.641Z,1018.9
2022-10-09T07:56:22.460Z,1018.9
2022-10-09T07:57:25.324Z,1018.9
2022-10-09T07:58:28.770Z,1018.9
2022-10-09T07:59:31.951Z,1018.9
2022-10-09T08:00:34.823Z,1018.8
2022-10-09T08:01:38.173Z,1018.8
2022-10-09T08:02:41.987Z,1018.8
2022-10-09T08:03:45.275Z,1018.8
2022-10-09T08:04:48.362Z,1018.8
2022-10-09T08:05:50.942Z,1018.8
2022-10-09T08:06:53.748Z,1018.8
2022-10-09T08:07:56.838Z,1018.8
2022-10-09T08:09:00.171Z,1018.9
2022-10-09T08:10:04.406Z,1018.9
2022-10-09T08:11:07.121Z,1018.9
2022-10-09T08:12:09.920Z,1018.9
2022-10-09T08:13:12.503Z,1018.9
2022-10-09T08:14:19.815Z,1018.9
2022-10-09T08:15:23.240Z,1018.9
2022-10-09T08:16:27.112Z,1018.9
2022-10-09T08:17:30.003Z,1018.9
2022-10-09T08:18:33.424Z,1018.9
2022-10-09T08:19:36.736Z,1018.9
2022-10-09T08:20:40.147Z,1018.9
2022-10-09T08:21:43.477Z,1018.9
2022-10-09T08:22:47.125Z,1018.9
2022-10-09T08:23:53.212Z,1018.9
2022-10-09T08:24:55.807Z,1018.8
2022-10-09T08:25:59.324Z,1018.8
2022-10-09T08:27:02.387Z,1018.8
2022-10-09T08:28:06.069Z,1018.8
2022-10-09T08:29:08.867Z,1018.8
2022-10-09T08:30:11.559Z,1018.9
2022-10-09T08:31:14.506Z,1018.8
2022-10-09T08:32:18.153Z,1018.8
2022-10-09T08:33:20.676Z,1018.8
2022-10-09T08:34:22.994Z,1018.8
2022-10-09T08:35:25.516Z,1018.8
2022-10-09T08:36:36.452Z,1018.8
2022-10-09T08:37:39.518Z,1018.8
2022-10-09T08:38:49.354Z,1018.9
2022-10-09T08:39:52.164Z,1018.9
2022-10-09T08:40:58.825Z,1018.8
2022-10-09T08:42:02.367Z,1018.8
2022-10-09T08:43:05.731Z,1018.8
2022-10-09T08:44:09.087Z,1018.8
2022-10-09T08:45:12.231Z,1018.9
2022-10-09T08:46:21.341Z,1018.9
2022-10-09T08:47:24.421Z,1018.8
2022-10-09T08:48:27.791Z,1018.9
2022-10-09T08:49:30.866Z,1018.9
2022-10-09T08:50:34.008Z,1018.9
2022-10-09T08:51:37.087Z,1018.8
2022-10-09T08:52:40.424Z,1018.9
2022-10-09T08:53:43.780Z,1018.9
2022-10-09T08:54:46.851Z,1018.9
2022-10-09T08:55:49.661Z,1018.9
2022-10-09T08:56:52.506Z,1018.9
2022-10-09T08:57:55.705Z,1018.8
2022-10-09T08:58:58.496Z,1018.8
2022-10-09T09:00:01.893Z,1018.8
2022-10-09T09:01:05.032Z,1018.9
2022-10-09T09:02:07.741Z,1018.8
2022-10-09T09:03:11.521Z,1018.9
2022-10-09T09:04:14.857Z,1018.9
2022-10-09T09:05:18.569Z,1018.9
2022-10-09T09:06:21.098Z,1018.8
2022-10-09T09:07:24.083Z,1018.8
2022-10-09T09:08:26.609Z,1018.9
2022-10-09T09:09:30.261Z,1018.9
2022-10-09T09:10:33.051Z,1018.8
2022-10-09T09:11:35.877Z,1018.8
2022-10-09T09:12:39.310Z,1018.8
2022-10-09T09:13:43.178Z,1018.8
2022-10-09T09:14:46.318Z,1018.8
2022-10-09T09:15:49.618Z,1018.8
2022-10-09T09:16:53.267Z,1018.8
2022-10-09T09:17:56.326Z,1018.8
2022-10-09T09:18:59.183Z,1018.8
2022-10-09T09:20:02.308Z,1018.8
2022-10-09T09:21:05.671Z,1018.8
2022-10-09T09:22:08.810Z,1018.8
2022-10-09T09:23:11.324Z,1018.8
2022-10-09T09:24:13.767Z,1018.8
2022-10-09T09:25:16.628Z,1018.8
2022-10-09T09:26:20.107Z,1018.7
2022-10-09T09:27:23.629Z,1018.7
2022-10-09T09:28:27.549Z,1018.7
2022-10-09T09:29:31.918Z,1018.8
2022-10-09T09:30:34.802Z,1018.8
2022-10-09T09:31:37.941Z,1018.8
2022-10-09T09:32:41.436Z,1018.7
2022-10-09T09:33:45.512Z,1018.7
2022-10-09T09:34:48.516Z,1018.8
2022-10-09T09:35:51.669Z,1018.8
2022-10-09T09:36:54.478Z,1018.8
2022-10-09T09:37:58.212Z,1018.7
2022-10-09T09:41:48.812Z,1018.7
2022-10-09T09:42:52.613Z,1018.7
2022-10-09T09:43:55.655Z,1018.7
2022-10-09T09:44:59.702Z,1018.7
2022-10-09T09:46:02.907Z,1018.7
2022-10-09T09:47:07.119Z,1018.7
2022-10-09T09:48:09.706Z,1018.7
2022-10-09T09:49:12.508Z,1018.7
2022-10-09T09:50:48.408Z,1018.7
2022-10-09T09:52:32.162Z,1018.7
2022-10-09T09:53:34.949Z,1018.7
2022-10-09T09:54:38.018Z,1018.6
2022-10-09T09:55:40.891Z,1018.6
2022-10-09T09:57:15.026Z,1018.6
2022-10-09T09:58:25.141Z,1018.6
2022-10-09T09:59:28.190Z,1018.6
2022-10-09T10:00:32.170Z,1018.6
2022-10-09T10:01:35.087Z,1018.5
2022-10-09T10:02:38.735Z,1018.6
2022-10-09T10:03:41.885Z,1018.5
2022-10-09T10:04:44.676Z,1018.5
2022-10-09T10:05:48.134Z,1018.5
2022-10-09T10:06:51.321Z,1018.6
2022-10-09T10:07:53.755Z,1018.6
2022-10-09T10:08:56.567Z,1018.5
2022-10-09T10:10:00.283Z,1018.6
2022-10-09T10:11:03.346Z,1018.6
2022-10-09T10:12:06.265Z,1018.5
2022-10-09T10:13:09.097Z,1018.5
2022-10-09T10:14:12.128Z,1018.5
2022-10-09T10:15:15.266Z,1018.5
2022-10-09T10:16:19.399Z,1018.6
2022-10-09T10:17:23.061Z,1018.5
2022-10-09T10:18:26.679Z,1018.5
2022-10-09T10:19:29.844Z,1018.5
2022-10-09T10:20:32.929Z,1018.5
2022-10-09T10:21:35.820Z,1018.4
2022-10-09T10:22:39.473Z,1018.4
2022-10-09T10:23:42.893Z,1018.5
2022-10-09T10:24:45.602Z,1018.5
2022-10-09T10:25:47.924Z,1018.5
2022-10-09T10:26:50.914Z,1018.4
2022-10-09T10:27:53.640Z,1018.4
2022-10-09T10:28:56.156Z,1018.5
2022-10-09T10:29:58.860Z,1018.6
2022-10-09T10:31:02.457Z,1018.5
2022-10-09T10:32:06.279Z,1018.4
2022-10-09T10:33:08.844Z,1018.4
2022-10-09T10:34:11.656Z,1018.4
2022-10-09T10:35:14.361Z,1018.4
2022-10-09T10:36:17.149Z,1018.4
2022-10-09T10:37:20.335Z,1018.5
2022-10-09T10:38:22.849Z,1018.5
2022-10-09T10:39:25.716Z,1018.4
2022-10-09T10:40:29.529Z,1018.4
2022-10-09T10:41:33.183Z,1018.4
2022-10-09T10:42:35.717Z,1018.5
2022-10-09T10:43:38.810Z,1018.4
2022-10-09T10:44:41.587Z,1018.4
2022-10-09T10:45:44.621Z,1018.5
2022-10-09T10:46:47.842Z,1018.5
2022-10-09T10:47:53.276Z,1018.5
2022-10-09T10:48:56.732Z,1018.4
2022-10-09T10:50:00.413Z,1018.4
2022-10-09T10:51:03.576Z,1018.4
2022-10-09T10:52:06.754Z,1018.4
2022-10-09T10:53:09.579Z,1018.3
2022-10-09T10:54:12.723Z,1018.3
2022-10-09T10:55:16.075Z,1018.3
2022-10-09T10:56:19.451Z,1018.3
2022-10-09T10:57:22.165Z,1018.3
2022-10-09T10:58:25.166Z,1018.3
2022-10-09T10:59:28.247Z,1018.3
2022-10-09T11:00:31.315Z,1018.3
2022-10-09T11:01:34.344Z,1018.3
2022-10-09T11:02:42.447Z,1018.3
2022-10-09T11:03:46.953Z,1018.2
2022-10-09T11:04:50.852Z,1018.3
2022-10-09T11:05:53.481Z,1018.3
2022-10-09T11:06:56.548Z,1018.3
2022-10-09T11:08:00.641Z,1018.3
2022-10-09T11:09:03.975Z,1018.3
2022-10-09T11:10:06.850Z,1018.3
2022-10-09T11:11:10.021Z,1018.3
2022-10-09T11:12:47.144Z,1018.1
2022-10-09T11:13:51.776Z,1018.2
2022-10-09T11:14:54.501Z,1018.2
2022-10-09T11:15:57.994Z,1018.2
2022-10-09T11:17:01.413Z,1018.2
2022-10-09T11:18:04.874Z,1018.2
2022-10-09T11:19:08.693Z,1018.2
2022-10-09T11:20:12.071Z,1018.2
2022-10-09T11:21:15.212Z,1018.2
2022-10-09T11:22:18.193Z,1018.1
2022-10-09T11:23:21.597Z,1018.1
2022-10-09T11:24:24.209Z,1018.1
2022-10-09T11:25:26.875Z,1018.1
2022-10-09T11:26:29.701Z,1018.1
2022-10-09T11:27:32.147Z,1018.1
2022-10-09T11:28:34.874Z,1018.1
2022-10-09T11:29:38.475Z,1018.1
2022-10-09T11:30:41.612Z,1018.1
2022-10-09T11:31:44.825Z,1018.1
2022-10-09T11:32:48.237Z,1018.1
2022-10-09T11:33:51.479Z,1018.1
2022-10-09T11:34:55.261Z,1018.1
2022-10-09T11:35:58.425Z,1018.1
2022-10-09T11:37:01.043Z,1018.1
2022-10-09T11:38:04.094Z,1018
2022-10-09T11:39:12.735Z,1018
2022-10-09T11:40:16.063Z,1017.9
2022-10-09T11:41:19.257Z,1018
2022-10-09T11:42:23.253Z,1017.9
2022-10-09T11:43:25.419Z,1018
2022-10-09T11:44:28.506Z,1017.9
2022-10-09T11:45:31.122Z,1018
2022-10-09T11:46:34.579Z,1017.9
2022-10-09T11:47:37.730Z,1017.9
2022-10-09T11:48:40.801Z,1017.9
2022-10-09T11:49:44.123Z,1017.9
2022-10-09T11:50:47.920Z,1017.9
2022-10-09T11:51:50.799Z,1017.9
2022-10-09T11:52:53.956Z,1017.9
2022-10-09T11:53:57.303Z,1017.8
2022-10-09T11:55:00.780Z,1017.9
2022-10-09T11:56:03.862Z,1017.8
2022-10-09T11:57:09.589Z,1017.9
2022-10-09T11:58:18.203Z,1017.9
2022-10-09T11:59:21.571Z,1017.9
2022-10-09T12:00:24.740Z,1017.9
2022-10-09T12:01:27.535Z,1017.9
2022-10-09T12:02:31.282Z,1017.9
2022-10-09T12:03:33.961Z,1017.8
2022-10-09T12:04:55.734Z,1017.8
2022-10-09T12:05:59.843Z,1017.8
2022-10-09T12:07:02.924Z,1017.7
2022-10-09T12:08:06.068Z,1017.7
2022-10-09T12:09:09.042Z,1017.7
2022-10-09T12:10:12.748Z,1017.6
2022-10-09T12:11:15.726Z,1017.7
2022-10-09T12:12:18.593Z,1017.7
2022-10-09T12:13:21.394Z,1017.7
2022-10-09T12:14:24.852Z,1017.7
2022-10-09T12:15:27.569Z,1017.7
2022-10-09T12:16:30.820Z,1017.7
2022-10-09T12:17:34.016Z,1017.6
2022-10-09T12:18:36.912Z,1017.6
2022-10-09T12:19:40.057Z,1017.5
2022-10-09T12:20:43.537Z,1017.6
2022-10-09T12:21:47.636Z,1017.6
2022-10-09T12:23:26.070Z,1017.6
2022-10-09T12:24:33.503Z,1017.6
2022-10-09T12:25:37.275Z,1017.6
2022-10-09T12:26:40.435Z,1017.6
2022-10-09T12:27:43.325Z,1017.6
2022-10-09T12:28:46.749Z,1017.6
2022-10-09T12:29:50.325Z,1017.5
2022-10-09T12:30:53.585Z,1017.5
2022-10-09T12:31:57.171Z,1017.5
2022-10-09T12:32:59.955Z,1017.5
2022-10-09T12:34:03.035Z,1017.4
2022-10-09T12:35:06.321Z,1017.4
2022-10-09T12:36:08.524Z,1017.5
2022-10-09T12:37:12.631Z,1017.4
2022-10-09T12:38:16.085Z,1017.4
2022-10-09T12:39:19.761Z,1017.4
2022-10-09T12:40:23.577Z,1017.3
2022-10-09T12:41:26.725Z,1017.4
2022-10-09T12:43:33.305Z,1017.3
2022-10-09T12:44:36.355Z,1017.3
2022-10-09T12:45:39.550Z,1017.3
2022-10-09T12:46:42.928Z,1017.3
2022-10-09T12:47:45.730Z,1017.3
2022-10-09T12:48:48.600Z,1017.3
2022-10-09T12:49:52.051Z,1017.3
2022-10-09T12:50:55.467Z,1017.3
2022-10-09T12:51:58.776Z,1017.3
2022-10-09T12:53:02.883Z,1017.3
2022-10-09T12:54:05.313Z,1017.3
2022-10-09T12:55:08.394Z,1017.3
2022-10-09T12:56:11.394Z,1017.3
2022-10-09T12:57:14.197Z,1017.3
2022-10-09T12:58:16.679Z,1017.3
2022-10-09T12:59:19.926Z,1017.3
2022-10-09T13:00:22.724Z,1017.3
2022-10-09T13:01:26.106Z,1017.2
2022-10-09T13:02:30.122Z,1017.2
2022-10-09T13:03:34.096Z,1017.2
2022-10-09T13:04:37.505Z,1017.2
2022-10-09T13:05:39.952Z,1017.1
2022-10-09T13:06:42.857Z,1017.1
2022-10-09T13:07:49.064Z,1017.1
2022-10-09T13:08:53.141Z,1017.1
2022-10-09T13:09:56.314Z,1017.1
2022-10-09T13:10:59.478Z,1017.1
2022-10-09T13:12:02.553Z,1017.1
2022-10-09T13:13:05.061Z,1017.1
2022-10-09T13:14:07.953Z,1017.1
2022-10-09T13:15:11.177Z,1017.1
2022-10-09T13:16:20.925Z,1017.1
2022-10-09T13:17:23.988Z,1017.1
2022-10-09T13:18:27.173Z,1017.1
2022-10-09T13:19:29.985Z,1017.1
2022-10-09T13:20:32.861Z,1017.1
2022-10-09T13:21:36.243Z,1017.1